»·PEaware :: AAY318 KLAS-KRNO

AAY318 :: KLAS-KRNO

FLIGHT INFORMATION

Flight Status: Arrived
Operator:
Allegiant Air
More flights by this operator :: More flights under this callsign
Pilot: Aundrey S. (17120)
Aircraft: AIRBUS A319
(A319)
More flights by this aircraft type
Origin: KLAS McCarran Intl
United States
Destination: KRNO Reno/Tahoe Intl
United States
More flights between these airports :: More routes between these airports
Route: JOHKR1 KENNO KENNO2
File this flight plan on PilotEdge
Remarks:
Altitude:
(Current/Filed)
34,000ft
Speed:
(Current/Filed)
450kts
Departed: 07-Apr-21 07:39 PM
Arrived: 07-Apr-21 08:35 PM
Distance/Time
Traveled:
300nm/0:56
Distance/Time
To Go:
Arrived

Flight Plot

Page will automatically refresh every two minutes.

Flight plan parsing failed; only flown route is shown


Map Options




Map Legend


Flown Route
Filed Route
Departure Airport
Arrival Airport
Navaid (VOR, NDB)
Fix

Horizontal Profiles

Position Reports

Time Latitude Longitude Heading Altitude Ground
Speed
07-Apr-21 18:56 36.086382 -115.153648 98 2107ft 0kts
07-Apr-21 18:57 36.086382 -115.153648 98 2107ft 0kts
07-Apr-21 18:58 36.086382 -115.153648 98 2107ft 0kts
07-Apr-21 18:59 36.086382 -115.153648 98 2107ft 0kts
07-Apr-21 19:00 36.086382 -115.153648 98 2107ft 0kts
07-Apr-21 19:01 36.086382 -115.153648 98 2107ft 0kts
07-Apr-21 19:02 36.086382 -115.153648 98 2107ft 0kts
07-Apr-21 19:03 36.086382 -115.153648 98 2107ft 0kts
07-Apr-21 19:04 36.086382 -115.153648 98 2107ft 0kts
07-Apr-21 19:05 36.086382 -115.153648 98 2107ft 0kts
07-Apr-21 19:06 36.086382 -115.153648 98 2107ft 0kts
07-Apr-21 19:07 36.086382 -115.153648 98 2107ft 0kts
07-Apr-21 19:08 36.086382 -115.153648 98 2107ft 0kts
07-Apr-21 19:09 36.086382 -115.153648 98 2107ft 0kts
07-Apr-21 19:10 36.086382 -115.153648 98 2107ft 0kts
07-Apr-21 19:11 36.086382 -115.153648 98 2107ft 0kts
07-Apr-21 19:12 36.086382 -115.153648 98 2107ft 0kts
07-Apr-21 19:13 36.086382 -115.153648 98 2107ft 0kts
07-Apr-21 19:14 36.086382 -115.153648 98 2107ft 0kts
07-Apr-21 19:15 36.086382 -115.153648 98 2107ft 0kts
07-Apr-21 19:16 36.086382 -115.153648 98 2107ft 0kts
07-Apr-21 19:17 36.086382 -115.153648 98 2107ft 0kts
07-Apr-21 19:18 36.086382 -115.153648 98 2107ft 0kts
07-Apr-21 19:19 36.086382 -115.153648 98 2107ft 0kts
07-Apr-21 19:20 36.086382 -115.153648 98 2107ft 0kts
07-Apr-21 19:21 36.086382 -115.153648 98 2107ft 0kts
07-Apr-21 19:22 36.086382 -115.153649 98 2107ft 0kts
07-Apr-21 19:23 36.086425 -115.154018 98 2108ft 2kts
07-Apr-21 19:24 36.086770 -115.154549 175 2110ft 2kts
07-Apr-21 19:25 36.086989 -115.154496 202 2109ft 0kts
07-Apr-21 19:26 36.086989 -115.154496 202 2109ft 0kts
07-Apr-21 19:27 36.086989 -115.154496 202 2109ft 0kts
07-Apr-21 19:28 36.086989 -115.154496 202 2109ft 0kts
07-Apr-21 19:29 36.086989 -115.154496 202 2109ft 0kts
07-Apr-21 19:30 36.086989 -115.154496 202 2109ft 0kts
07-Apr-21 19:31 36.086989 -115.154496 202 2109ft 0kts
07-Apr-21 19:32 36.086989 -115.154496 202 2109ft 0kts
07-Apr-21 19:33 36.086979 -115.154504 211 2109ft 1kts
07-Apr-21 19:34 36.089439 -115.155047 359 2104ft 20kts
07-Apr-21 19:35 36.095978 -115.152819 24 2083ft 25kts
07-Apr-21 19:36 36.097901 -115.152289 318 2078ft 0kts
07-Apr-21 19:37 36.098079 -115.153195 265 2079ft 11kts
07-Apr-21 19:38 36.093823 -115.156268 204 2097ft 102kts
07-Apr-21 19:39 36.052822 -115.180328 206 4761ft 182kts
07-Apr-21 19:40 35.999093 -115.210983 201 6922ft 247kts
07-Apr-21 19:41 35.941154 -115.266741 230 9849ft 283kts
07-Apr-21 19:42 35.892937 -115.354255 248 11833ft 344kts
07-Apr-21 19:43 35.887023 -115.481954 271 13621ft 398kts
07-Apr-21 19:44 35.889752 -115.619830 272 16614ft 407kts
07-Apr-21 19:45 35.892311 -115.761048 271 19299ft 415kts
07-Apr-21 19:46 35.897306 -115.904893 281 21594ft 426kts
07-Apr-21 19:47 35.966270 -116.025450 310 23517ft 449kts
07-Apr-21 19:48 36.054679 -116.134923 309 25705ft 446kts
07-Apr-21 19:49 36.140920 -116.241502 309 28107ft 432kts
07-Apr-21 19:50 36.224318 -116.345042 308 30189ft 421kts
07-Apr-21 19:51 36.306264 -116.446251 309 31925ft 413kts
07-Apr-21 19:52 36.388458 -116.543616 308 33398ft 406kts
07-Apr-21 19:53 36.469711 -116.639574 309 33988ft 404kts
07-Apr-21 19:54 36.552637 -116.733811 309 33985ft 404kts
07-Apr-21 19:55 36.635364 -116.828155 309 33983ft 405kts
07-Apr-21 19:56 36.720464 -116.921126 314 33989ft 411kts
07-Apr-21 19:57 36.818730 -116.997221 322 33978ft 422kts
07-Apr-21 19:58 36.922617 -117.064691 323 34003ft 422kts
07-Apr-21 19:59 37.026783 -117.132468 323 34010ft 423kts
07-Apr-21 20:00 37.124641 -117.196283 323 33997ft 424kts
07-Apr-21 20:01 37.235359 -117.268554 323 34018ft 425kts
07-Apr-21 20:02 37.333169 -117.347651 313 34049ft 414kts
07-Apr-21 20:03 37.420623 -117.440642 311 34054ft 413kts
07-Apr-21 20:04 37.510347 -117.531308 317 34054ft 419kts
07-Apr-21 20:05 37.609348 -117.610377 319 34054ft 423kts
07-Apr-21 20:06 37.708851 -117.689504 319 34045ft 423kts
07-Apr-21 20:07 37.808065 -117.768698 319 34028ft 424kts
07-Apr-21 20:08 37.907769 -117.848315 319 34009ft 423kts
07-Apr-21 20:09 38.007162 -117.927902 319 34012ft 424kts
07-Apr-21 20:10 38.106114 -118.007431 319 31804ft 420kts
07-Apr-21 20:11 38.206281 -118.087879 320 28969ft 430kts
07-Apr-21 20:12 38.307542 -118.169787 321 25661ft 437kts
07-Apr-21 20:13 38.409449 -118.254918 317 24050ft 437kts
07-Apr-21 20:14 38.498449 -118.359140 311 24046ft 435kts
07-Apr-21 20:15 38.585354 -118.466591 311 24046ft 436kts
07-Apr-21 20:16 38.672366 -118.574632 311 24046ft 437kts
07-Apr-21 20:17 38.759564 -118.683237 310 23846ft 438kts
07-Apr-21 20:18 38.847058 -118.792373 310 22535ft 438kts
07-Apr-21 20:19 38.932681 -118.899389 311 20689ft 430kts
07-Apr-21 20:20 39.016462 -119.004995 311 18680ft 403kts
07-Apr-21 20:21 39.095139 -119.105238 311 16677ft 396kts
07-Apr-21 20:22 39.172762 -119.204485 311 15969ft 380kts
07-Apr-21 20:23 39.242910 -119.293023 311 14686ft 341kts
07-Apr-21 20:24 39.308389 -119.375814 311 12874ft 309kts
07-Apr-21 20:25 39.368284 -119.443277 324 11747ft 266kts
07-Apr-21 20:26 39.423201 -119.495786 284 10736ft 229kts
07-Apr-21 20:27 39.404378 -119.569476 243 10014ft 213kts
07-Apr-21 20:28 39.379081 -119.633895 244 10014ft 199kts
07-Apr-21 20:29 39.353912 -119.698422 243 9016ft 210kts
07-Apr-21 20:30 39.349630 -119.769960 308 6851ft 228kts
07-Apr-21 20:31 39.395388 -119.785606 4 6851ft 154kts
07-Apr-21 20:32 39.436504 -119.769299 5 5564ft 145kts
07-Apr-21 20:33 39.475898 -119.766719 354 4695ft 138kts
07-Apr-21 20:34 39.502084 -119.766779 358 4408ft 20kts
07-Apr-21 20:35 39.502864 -119.768101 270 4408ft 0kts
07-Apr-21 20:36 39.503062 -119.769697 311 4411ft 11kts
07-Apr-21 20:37 39.505841 -119.771710 323 4413ft 8kts
07-Apr-21 20:38 39.506566 -119.772331 328 4415ft 0kts

Navigation Log

Ident Type
Flight plan parsing failed, navigation log unavailable